Time;durP1;ratioP1;P1;durP2;ratioP2;P2;SDS_P1;SDS_P2;PMS_P1;PMS_P2;Temp;Humidity;BMP_temperature;BMP_pressure;BME280_temperature;BME280_humidity;BME280_pressure;Samples;Min_cycle;Max_cycle;Signal;HPM_P1;HPM_P2
2021/07/11 00:00:27;;;;;;;27.45;19.90;;;;;;;25.56;64.39;99943.34;6245386;23;20497;1
2021/07/11 00:02:54;;;;;;;23.48;19.52;;;;;;;25.48;65.73;99940.31;6246812;23;20022;1
2021/07/11 00:05:22;;;;;;;23.75;19.17;;;;;;;25.55;65.52;99979.97;6247158;22;20019;1
2021/07/11 00:07:49;;;;;;;22.33;20.00;;;;;;;25.10;64.11;99921.34;6247153;23;20384;0
2021/07/11 00:10:16;;;;;;;21.88;17.85;;;;;;;25.44;65.84;99966.44;6247090;23;20440;1
2021/07/11 00:12:44;;;;;;;22.85;19.75;;;;;;;25.23;64.31;99921.38;6246759;23;20066;0
2021/07/11 00:15:14;;;;;;;26.08;21.00;;;;;;;25.11;66.94;99924.88;6244956;22;20015;0
2021/07/11 00:17:42;;;;;;;18.33;15.18;;;;;;;25.20;63.43;99934.09;6247429;23;20495;0
2021/07/11 00:20:12;;;;;;;23.45;19.20;;;;;;;25.08;67.30;99933.97;6220322;23;20015;0
2021/07/11 00:22:39;;;;;;;;;;;;;;;25.15;67.70;99963.84;6247229;23;20020;1
2021/07/11 00:25:07;;;;;;;18.27;16.25;;;;;;;25.12;64.78;99968.53;6246662;22;19923;1
2021/07/11 00:27:34;;;;;;;24.05;21.50;;;;;;;25.06;67.89;99969.81;6246521;23;20020;0
2021/07/11 00:30:00;;;;;;;26.60;20.75;;;;;;;24.78;67.98;99923.44;6246849;23;20012;1
2021/07/11 00:32:26;;;;;;;25.27;19.85;;;;;;;25.08;67.38;99966.06;6246828;23;20457;1
2021/07/11 00:34:52;;;;;;;23.42;20.17;;;;;;;24.73;67.09;99929.09;6246418;22;20012;1
2021/07/11 00:37:19;;;;;;;22.40;19.33;;;;;;;24.74;66.75;99929.94;6219806;23;20020;0
2021/07/11 00:39:46;;;;;;;23.30;20.25;;;;;;;24.86;68.54;99963.06;6245324;22;20503;0
2021/07/11 00:42:13;;;;;;;25.27;21.25;;;;;;;24.83;68.41;99969.47;6220056;23;20016;-1
2021/07/11 00:44:40;;;;;;;25.40;20.77;;;;;;;24.79;68.35;99975.13;6246344;22;20016;0
2021/07/11 00:47:11;;;;;;;30.52;22.15;;;;;;;24.59;68.52;99934.44;6246142;23;20069;1
2021/07/11 00:49:42;;;;;;;29.40;21.40;;;;;;;24.84;68.41;99975.69;6246788;23;20015;1
2021/07/11 00:52:10;;;;;;;27.88;21.65;;;;;;;24.73;68.46;99965.66;6219933;23;20016;1
2021/07/11 00:54:37;;;;;;;28.73;20.77;;;;;;;24.76;68.16;99960.97;6246641;22;20345;1
2021/07/11 00:57:06;;;;;;;26.50;20.10;;;;;;;24.74;67.20;99956.69;6246779;23;20334;-1
2021/07/11 00:59:34;;;;;;;17.85;15.68;;;;;;;24.97;63.42;99959.72;6246305;23;20019;0
2021/07/11 01:02:53;;;;;;;24.23;20.75;;;;;;;25.06;67.47;99985.84;6246531;23;20016;-1
2021/07/11 01:05:23;;;;;;;19.65;17.00;;;;;;;24.91;64.73;99956.47;6225210;22;20024;0
2021/07/11 01:08:06;;;;;;;21.43;18.70;;;;;;;25.05;66.89;99979.63;6219428;23;20035;0
2021/07/11 01:10:38;;;;;;;25.33;20.95;;;;;;;24.52;67.55;99907.25;6219805;23;20278;0
2021/07/11 01:13:08;;;;;;;25.90;20.08;;;;;;;24.71;67.50;99931.00;6246587;23;20522;0
2021/07/11 01:15:37;;;;;;;28.10;21.88;;;;;;;24.70;67.58;99934.63;6245957;22;20020;0
2021/07/11 01:18:07;;;;;;;26.10;20.88;;;;;;;24.70;67.68;99944.47;6244924;23;20023;0
2021/07/11 01:20:48;;;;;;;24.80;20.65;;;;;;;24.86;67.73;99979.97;6245332;23;20016;0
2021/07/11 01:23:52;;;;;;;17.55;15.75;;;;;;;25.04;63.41;100001.13;6246378;23;20456;0
2021/07/11 01:26:19;;;;;;;24.60;20.30;;;;;;;24.88;67.76;99982.53;6245905;22;20020;0
2021/07/11 01:28:51;;;;;;;20.15;17.23;;;;;;;24.90;64.73;99997.53;6245995;23;20094;1
2021/07/11 01:31:22;;;;;;;33.10;21.88;;;;;;;24.74;68.64;99986.09;6246669;23;20043;0
2021/07/11 01:33:51;;;;;;;26.23;19.65;;;;;;;24.89;67.04;99979.75;6246273;23;20011;1
2021/07/11 01:36:20;;;;;;;26.88;20.35;;;;;;;24.78;67.59;99952.84;6219071;23;20023;1
2021/07/11 01:38:51;;;;;;;22.55;17.40;;;;;;;24.53;64.79;99919.66;6219170;23;20339;1
2021/07/11 01:41:21;;;;;;;23.95;19.20;;;;;;;24.79;63.71;99954.56;6246290;23;20099;1
2021/07/11 01:43:55;;;;;;;24.83;19.50;;;;;;;25.12;65.08;99996.13;6246107;23;20078;1
2021/07/11 01:46:25;;;;;;;25.35;21.58;;;;;;;24.91;66.89;99955.59;6246343;22;20024;0
2021/07/11 01:48:55;;;;;;;21.10;18.73;;;;;;;24.86;64.94;99957.69;6245922;23;20020;0
2021/07/11 01:51:24;;;;;;;17.27;15.05;;;;;;;24.99;62.22;99957.78;6245716;23;20066;1
2021/07/11 01:53:52;;;;;;;26.38;22.67;;;;;;;25.01;66.80;99979.94;6245779;23;20022;1
2021/07/11 01:56:20;;;;;;;22.98;20.02;;;;;;;25.24;65.53;100005.19;6245971;22;20449;1
2021/07/11 01:58:47;;;;;;;18.70;15.75;;;;;;;25.24;61.20;99971.25;6246364;23;20070;1
2021/07/11 02:01:18;;;;;;;26.30;22.33;;;;;;;25.41;64.81;99972.84;6246064;23;20016;1
2021/07/11 02:03:53;;;;;;;18.67;16.50;;;;;;;25.62;61.14;99976.84;6245637;23;20469;1
2021/07/11 02:06:19;;;;;;;22.00;18.67;;;;;;;25.50;61.73;99944.63;6246274;22;20015;1
2021/07/11 02:08:54;;;;;;;24.88;20.75;;;;;;;25.50;64.40;99944.63;6245941;23;20508;1
2021/07/11 02:11:28;;;;;;;17.25;15.40;;;;;;;25.72;60.03;99961.88;6245577;23;20031;1
2021/07/11 02:14:14;;;;;;;25.92;21.38;;;;;;;25.84;63.65;100003.91;6245621;23;20388;0
2021/07/11 02:17:25;;;;;;;27.90;21.98;;;;;;;25.81;61.27;100001.41;6245808;22;20012;1
2021/07/11 02:20:20;;;;;;;28.40;23.38;;;;;;;25.39;63.99;99969.41;6094318;23;20014;1
2021/07/11 02:22:50;;;;;;;22.73;19.80;;;;;;;25.43;63.35;99976.28;6094090;23;20018;0
2021/07/11 02:25:20;;;;;;;23.10;19.73;;;;;;;25.27;62.26;99962.16;6094183;23;20089;1
2021/07/11 02:27:57;;;;;;;23.67;20.00;;;;;;;25.34;62.84;99998.25;6094022;23;20113;1
2021/07/11 02:30:29;;;;;;;28.40;19.00;;;;;;;25.12;64.69;99961.34;6070054;23;20018;1
2021/07/11 02:32:59;;;;;;;19.83;16.83;;;;;;;25.35;61.89;100009.84;6094519;23;20072;1
2021/07/11 02:35:39;;;;;;;23.63;19.42;;;;;;;25.22;64.12;99977.66;6094006;23;20367;1
2021/07/11 02:38:07;;;;;;;16.92;14.80;;;;;;;25.32;60.81;99959.16;6094575;23;20018;1
2021/07/11 02:40:35;;;;;;;19.38;16.65;;;;;;;25.68;60.58;99984.47;6093962;23;20045;1
2021/07/11 02:43:06;;;;;;;18.60;15.05;;;;;;;25.47;60.82;99966.22;6094358;23;20022;1
2021/07/11 02:45:37;;;;;;;24.88;18.77;;;;;;;25.73;61.55;100006.44;6094066;23;20024;1
2021/07/11 02:48:10;;;;;;;17.63;14.57;;;;;;;25.49;59.75;99961.63;6094030;23;20026;2
2021/07/11 02:50:48;;;;;;;19.60;17.38;;;;;;;25.72;61.31;99994.00;6110559;23;20021;1
2021/07/11 02:53:20;;;;;;;23.75;17.85;;;;;;;25.57;60.48;99971.81;6123245;23;20105;1
2021/07/11 02:55:55;;;;;;;17.83;15.93;;;;;;;25.61;60.22;99967.13;6140603;23;20019;1
2021/07/11 02:58:30;;;;;;;17.77;14.48;;;;;;;25.75;58.97;99964.38;6245244;23;20090;0
2021/07/11 03:00:58;;;;;;;19.02;16.67;;;;;;;25.76;58.95;99960.69;6245254;23;20012;1
2021/07/11 03:03:26;;;;;;;17.52;15.30;;;;;;;25.85;58.95;99991.34;6245239;23;20065;1
2021/07/11 03:06:00;;;;;;;22.48;16.90;;;;;;;25.78;59.38;99957.94;6245836;22;20016;1
2021/07/11 03:08:28;;;;;;;18.35;16.45;;;;;;;25.88;58.66;99991.16;6245407;23;20027;2
2021/07/11 03:11:00;;;;;;;17.10;15.30;;;;;;;25.68;58.83;99957.69;6245570;23;20043;1
2021/07/11 03:13:31;;;;;;;;;;;;;;;25.94;58.63;100012.16;6219409;23;20449;1
2021/07/11 03:15:59;;;;;;;19.92;15.38;;;;;;;25.92;58.45;100004.22;6188231;23;19966;1
2021/07/11 03:18:30;;;;;;;16.80;15.00;;;;;;;25.66;58.10;99965.84;6215173;23;20052;1
2021/07/11 03:20:58;;;;;;;20.35;15.65;;;;;;;25.74;58.45;99994.78;6215131;23;20404;1
2021/07/11 03:23:27;;;;;;;16.17;14.48;;;;;;;25.65;58.21;99961.44;6188134;23;20023;1
2021/07/11 03:25:55;;;;;;;20.83;15.90;;;;;;;25.71;57.92;99968.22;6215558;23;20020;1
2021/07/11 03:28:22;;;;;;;18.33;15.13;;;;;;;25.73;58.29;99964.44;6216812;23;20100;1
2021/07/11 03:30:51;;;;;;;20.15;16.05;;;;;;;25.85;58.30;99983.31;6217532;23;20016;0
2021/07/11 03:33:19;;;;;;;19.10;15.57;;;;;;;25.55;58.84;99953.19;6217042;23;20016;1
2021/07/11 03:35:55;;;;;;;16.02;14.45;;;;;;;25.79;58.25;99976.56;6165515;23;20070;0
2021/07/11 03:38:42;;;;;;;18.23;16.15;;;;;;;25.63;59.18;99995.50;6217043;23;20028;0
2021/07/11 03:41:17;;;;;;;21.67;15.95;;;;;;;25.62;58.98;100000.94;6217107;23;20412;0
2021/07/11 03:43:53;;;;;;;17.83;14.38;;;;;;;25.54;58.89;99956.81;6216557;23;20017;0
2021/07/11 03:46:24;;;;;;;16.75;14.88;;;;;;;25.92;58.40;100012.25;6217425;23;20040;0
2021/07/11 03:48:59;;;;;;;18.08;13.90;;;;;;;25.84;57.48;99973.56;6216977;23;20335;1
2021/07/11 03:51:30;;;;;;;16.35;14.50;;;;;;;25.83;56.62;99948.63;6216997;23;20020;0
2021/07/11 03:53:58;;;;;;;17.67;14.27;;;;;;;26.04;56.47;99954.34;6216957;23;20323;0
2021/07/11 03:56:27;;;;;;;20.83;15.35;;;;;;;26.07;56.81;99967.53;6217226;23;20020;1
2021/07/11 03:58:58;;;;;;;16.20;14.43;;;;;;;26.00;56.26;99947.44;6216538;23;20020;1
2021/07/11 04:01:28;;;;;;;15.82;13.77;;;;;;;26.10;56.15;99961.09;6216913;23;20020;1
2021/07/11 04:03:56;;;;;;;15.38;13.55;;;;;;;26.20;54.94;99966.66;6216673;23;20354;0
2021/07/11 04:06:25;;;;;;;15.70;13.32;;;;;;;26.01;55.27;99965.25;6216420;23;20024;0
2021/07/11 04:08:55;;;;;;;15.85;14.15;;;;;;;25.84;56.22;99952.13;6217199;23;20051;1
2021/07/11 04:11:22;;;;;;;17.40;14.20;;;;;;;26.24;56.11;99993.16;6216378;23;20017;0
2021/07/11 04:13:50;;;;;;;15.20;13.60;;;;;;;26.04;55.66;99954.34;6220418;23;20445;-1
2021/07/11 04:16:20;;;;;;;15.90;13.45;;;;;;;26.17;55.49;99965.06;6247025;22;20453;0
2021/07/11 04:18:50;;;;;;;22.10;16.92;;;;;;;26.13;54.87;99982.31;6246627;23;20023;0
2021/07/11 04:21:17;;;;;;;18.85;15.98;;;;;;;26.02;55.30;99991.06;6246665;23;20087;-1
2021/07/11 04:23:45;;;;;;;16.08;13.63;;;;;;;25.92;56.54;99969.41;6247541;23;20016;1
2021/07/11 04:26:13;;;;;;;15.13;13.60;;;;;;;26.19;56.05;99995.28;6246784;22;20449;1
2021/07/11 04:28:42;;;;;;;16.95;14.45;;;;;;;26.37;55.01;100003.00;6246574;23;20035;1
2021/07/11 04:31:09;;;;;;;15.27;13.68;;;;;;;26.43;55.62;99999.88;6246978;23;20016;1
2021/07/11 04:33:36;;;;;;;15.65;13.43;;;;;;;26.36;54.78;100002.13;6246604;23;20353;1
2021/07/11 04:36:06;;;;;;;14.93;13.32;;;;;;;26.21;54.98;99990.66;6246144;22;20016;1
2021/07/11 04:38:33;;;;;;;16.42;13.73;;;;;;;25.84;55.26;99957.50;6246874;23;20012;1
2021/07/11 04:41:01;;;;;;;14.65;12.55;;;;;;;26.09;55.24;99997.72;6246865;23;20381;0
2021/07/11 04:43:27;;;;;;;16.15;14.38;;;;;;;26.41;55.87;100013.41;6246682;23;20020;0
2021/07/11 04:45:53;;;;;;;17.20;13.43;;;;;;;26.16;54.43;99970.53;6246686;22;20087;0
2021/07/11 04:48:20;;;;;;;15.75;12.63;;;;;;;26.18;54.05;99968.56;6220313;23;20445;0
2021/07/11 04:50:50;;;;;;;15.35;13.00;;;;;;;26.48;54.06;100004.91;6246372;23;20365;0
2021/07/11 04:53:16;;;;;;;14.63;12.50;;;;;;;26.45;54.38;100011.34;6246664;23;20331;-1
2021/07/11 04:55:47;;;;;;;14.45;12.77;;;;;;;26.16;54.99;99960.66;6246483;22;20486;1
2021/07/11 04:58:15;;;;;;;15.65;13.32;;;;;;;26.11;54.35;99937.84;6246742;23;20020;1
2021/07/11 05:00:42;;;;;;;15.00;12.73;;;;;;;26.44;54.10;99976.59;6246306;23;20473;0
2021/07/11 05:03:08;;;;;;;14.43;12.82;;;;;;;26.80;53.85;100017.88;6246203;23;20094;1
2021/07/11 05:05:35;;;;;;;14.35;12.85;;;;;;;26.56;51.37;100006.06;6246203;22;20020;0
2021/07/11 05:08:04;;;;;;;14.25;12.55;;;;;;;26.51;51.61;99983.25;6246341;23;20617;0
2021/07/11 05:10:32;;;;;;;15.65;12.68;;;;;;;26.53;53.21;99976.81;6244776;23;20016;0
2021/07/11 05:12:58;;;;;;;16.42;12.18;;;;;;;26.88;52.53;100019.03;6246149;23;20023;0
2021/07/11 05:15:24;;;;;;;13.93;11.65;;;;;;;26.75;50.43;99983.34;6246095;22;20051;-1
2021/07/11 05:17:50;;;;;;;15.75;11.65;;;;;;;26.65;49.95;99968.84;6246034;23;20019;1
2021/07/11 05:20:16;;;;;;;13.80;11.25;;;;;;;26.71;49.85;99979.13;6219697;23;20016;-2
2021/07/11 05:22:42;;;;;;;13.82;11.88;;;;;;;27.01;50.20;100019.00;6246130;23;20050;0
2021/07/11 05:25:09;;;;;;;16.23;13.05;;;;;;;27.14;52.07;100027.00;6245838;22;20150;0
2021/07/11 05:38:13;;;;;;;13.52;11.32;;;;;;;26.86;50.49;99986.09;5070372;28;20391;-7
2021/07/11 05:40:39;;;;;;;18.55;11.50;;;;;;;27.08;49.15;100006.84;5068409;28;20032;-8
2021/07/11 05:43:05;;;;;;;13.63;11.63;;;;;;;27.13;49.42;99990.44;5068207;28;20033;-8
2021/07/11 05:45:31;;;;;;;13.57;11.55;;;;;;;27.28;50.84;99992.94;5069941;28;20078;-8
2021/07/11 05:47:58;;;;;;;13.93;11.38;;;;;;;27.33;48.21;100009.56;5069394;28;20034;-7
2021/07/11 05:50:24;;;;;;;14.02;11.95;;;;;;;27.35;50.59;100010.28;5069434;28;20080;-8
2021/07/11 05:52:50;;;;;;;11.60;10.35;;;;;;;27.20;47.39;99983.63;5068529;28;20071;-8
2021/07/11 05:55:16;;;;;;;16.90;10.93;;;;;;;27.34;46.98;100001.38;5068740;28;20529;-8
2021/07/11 05:57:42;;;;;;;12.48;11.18;;;;;;;27.42;49.92;100016.97;5068337;28;20529;-8
2021/07/11 06:00:11;;;;;;;12.32;9.48;;;;;;;27.53;45.81;100025.06;5068032;28;20033;-7
2021/07/11 06:02:41;;;;;;;12.27;10.77;;;;;;;27.51;48.67;100029.69;5069436;28;20045;-9
2021/07/11 06:05:08;;;;;;;14.13;11.23;;;;;;;27.53;46.39;100008.09;5067896;28;20040;-8
2021/07/11 06:07:35;;;;;;;13.52;10.45;;;;;;;27.56;46.73;99992.59;5069187;28;20440;-7
2021/07/11 06:10:04;;;;;;;12.13;9.30;;;;;;;27.69;44.91;99997.03;5067925;28;20520;-8
2021/07/11 06:12:30;;;;;;;11.82;10.60;;;;;;;27.67;46.02;99994.47;5067888;28;20044;-8
2021/07/11 06:14:56;;;;;;;13.25;9.40;;;;;;;27.78;44.27;100027.72;5069124;28;20554;-8
2021/07/11 06:17:23;;;;;;;11.10;9.98;;;;;;;27.56;46.35;99984.56;5067676;28;20032;-8
2021/07/11 06:19:49;;;;;;;13.65;9.43;;;;;;;27.75;44.00;99996.56;5068979;28;20086;-7
2021/07/11 06:22:15;;;;;;;12.82;8.98;;;;;;;27.80;43.71;99990.84;5069113;28;20554;-8
2021/07/11 06:24:42;;;;;;;12.07;8.25;;;;;;;27.79;43.45;99978.41;5067496;28;20051;-8
2021/07/11 06:27:08;;;;;;;11.98;9.30;;;;;;;28.01;43.66;100021.44;5068656;28;20537;-8
2021/07/11 06:29:34;;;;;;;11.00;8.55;;;;;;;28.13;43.07;100021.50;5067747;28;20055;-8
2021/07/11 06:32:00;;;;;;;9.82;8.10;;;;;;;27.89;42.54;99977.56;5068652;28;20033;-8
2021/07/11 06:34:26;;;;;;;11.18;8.75;;;;;;;28.03;42.51;99999.84;5067870;28;20044;-8
2021/07/11 06:36:52;;;;;;;9.43;7.75;;;;;;;28.28;41.80;100004.19;5068413;28;20051;-8
2021/07/11 06:39:18;;;;;;;8.52;7.50;;;;;;;28.51;41.26;100021.19;5054733;28;20076;-8
2021/07/11 06:41:44;;;;;;;9.88;8.23;;;;;;;28.39;42.23;100001.50;5055211;28;20135;-8
2021/07/11 06:44:10;;;;;;;10.55;8.90;;;;;;;28.50;41.55;100019.47;5055560;28;20045;-8
2021/07/11 06:46:36;;;;;;;11.70;7.85;;;;;;;28.60;41.66;100024.09;5055616;28;20041;-8
2021/07/11 06:49:03;;;;;;;8.80;7.85;;;;;;;28.42;41.33;99994.16;5055126;28;20049;-8
2021/07/11 06:51:29;;;;;;;8.77;7.60;;;;;;;28.19;41.27;99970.81;5055112;28;20040;-7
2021/07/11 06:53:55;;;;;;;9.73;7.97;;;;;;;28.66;43.96;100031.72;5055005;28;20040;-7
2021/07/11 06:56:21;;;;;;;11.35;7.60;;;;;;;28.52;40.22;99987.06;5054831;28;20163;-8
2021/07/11 06:58:47;;;;;;;8.77;7.88;;;;;;;28.67;39.99;99991.25;5054963;28;20032;-8
2021/07/11 07:01:13;;;;;;;9.55;7.88;;;;;;;28.92;40.22;100024.25;5054794;28;20040;-8
2021/07/11 07:03:39;;;;;;;11.43;9.98;;;;;;;28.63;41.82;99992.44;5054860;28;20444;-8
2021/07/11 07:06:09;;;;;;;11.23;9.85;;;;;;;28.55;44.66;99985.00;5054827;28;20094;-9
2021/07/11 07:08:36;;;;;;;10.07;8.00;;;;;;;28.84;43.99;100029.41;5020840;28;20048;-8
2021/07/11 07:11:02;;;;;;;8.35;7.07;;;;;;;28.38;39.81;99956.78;5053533;28;20422;-8
2021/07/11 07:13:28;;;;;;;9.75;7.55;;;;;;;28.65;40.85;100019.22;5052148;28;20098;-9
2021/07/11 07:15:54;;;;;;;10.65;8.63;;;;;;;28.82;41.61;100025.97;5044245;28;20088;-8
2021/07/11 07:18:20;;;;;;;7.97;6.97;;;;;;;28.84;40.97;100032.94;5033909;28;20481;-7
2021/07/11 07:20:46;;;;;;;10.18;9.05;;;;;;;28.83;44.06;100020.47;5034335;28;20029;-8
2021/07/11 07:23:12;;;;;;;10.57;7.30;;;;;;;28.96;41.03;100022.16;5034223;28;20041;-8
2021/07/11 07:25:38;;;;;;;11.52;9.45;;;;;;;28.89;43.95;99992.22;5034222;28;20457;-9
2021/07/11 07:28:06;;;;;;;10.13;8.05;;;;;;;29.10;39.65;100008.44;5032928;28;20068;-8
2021/07/11 07:30:32;;;;;;;8.75;7.85;;;;;;;28.94;40.28;99991.81;5033111;28;20063;-8
2021/07/11 07:32:58;;;;;;;8.88;7.65;;;;;;;29.02;42.52;100018.97;5034490;28;20069;-8
2021/07/11 07:35:24;;;;;;;8.63;7.63;;;;;;;28.67;41.14;99972.44;5016606;28;20529;-9
2021/07/11 07:37:50;;;;;;;9.40;7.38;;;;;;;28.51;40.69;99979.97;5033058;28;20046;-9
2021/07/11 07:40:19;;;;;;;8.77;7.25;;;;;;;28.61;41.32;99998.94;5034169;28;20041;-9
2021/07/11 07:42:47;;;;;;;9.20;8.27;;;;;;;28.59;44.21;99991.00;5034146;28;20037;-8
2021/07/11 07:45:14;;;;;;;11.10;8.23;;;;;;;28.85;41.54;99986.22;5034532;28;20486;-7
2021/07/11 07:47:40;;;;;;;9.27;7.93;;;;;;;28.97;40.36;99976.28;5033978;28;20040;-8
2021/07/11 07:50:10;;;;;;;9.02;8.13;;;;;;;29.29;40.24;99993.47;5033287;28;20068;-7
2021/07/11 07:52:36;;;;;;;10.80;8.00;;;;;;;29.50;42.13;100017.75;5034261;28;20470;-8
2021/07/11 07:55:05;;;;;;;10.40;8.45;;;;;;;29.28;40.09;99998.03;5033273;28;20653;-8
2021/07/11 07:57:31;;;;;;;9.52;8.48;;;;;;;29.50;40.12;100002.47;5016047;28;20037;-8
2021/07/11 07:59:57;;;;;;;9.57;8.55;;;;;;;29.89;39.71;100025.34;5046991;28;20494;-8
2021/07/11 08:02:24;;;;;;;10.27;8.63;;;;;;;29.83;39.90;100024.84;5044341;28;20041;-8
2021/07/11 08:04:50;;;;;;;10.10;8.48;;;;;;;29.68;40.73;100020.75;5052196;28;20044;-7
2021/07/11 08:07:17;;;;;;;13.52;9.20;;;;;;;29.85;40.07;100020.16;5045007;28;20036;-8
2021/07/11 08:09:43;;;;;;;9.43;8.52;;;;;;;29.94;39.46;99996.16;5031650;28;20308;-8
2021/07/11 08:12:09;;;;;;;11.05;7.60;;;;;;;29.93;42.81;99997.13;5041357;28;20029;-7
2021/07/11 08:14:35;;;;;;;27.10;18.55;;;;;;;29.79;40.18;99977.59;5041056;28;20036;-7
2021/07/11 08:17:01;;;;;;;12.07;7.88;;;;;;;30.06;42.36;100019.34;5046460;28;20028;-9
2021/07/11 08:19:27;;;;;;;15.13;9.23;;;;;;;29.89;39.79;99996.53;5037291;28;20478;-8
2021/07/11 08:21:54;;;;;;;9.60;8.68;;;;;;;29.79;39.91;100001.84;5036020;28;20045;-8
2021/07/11 08:24:21;;;;;;;10.68;8.05;;;;;;;29.64;40.13;99986.97;5052187;28;20082;-9
2021/07/11 08:26:48;;;;;;;14.85;8.77;;;;;;;29.70;40.23;99987.31;5043711;28;20082;-9
2021/07/11 08:29:14;;;;;;;9.15;8.23;;;;;;;30.03;39.59;100000.75;5031696;28;20041;-9
2021/07/11 08:31:41;;;;;;;10.13;9.00;;;;;;;29.88;39.79;99988.59;5032664;28;20048;-9
2021/07/11 08:34:07;;;;;;;14.20;8.88;;;;;;;30.15;39.75;100020.41;5032783;28;20056;-8
2021/07/11 08:36:33;;;;;;;10.95;8.70;;;;;;;29.82;42.33;100001.56;5032662;28;20473;-8
2021/07/11 08:38:59;;;;;;;10.57;9.45;;;;;;;30.00;39.38;100001.03;5032675;28;20045;-8
2021/07/11 08:41:26;;;;;;;10.77;9.00;;;;;;;29.90;40.17;99973.16;5032621;28;20038;-8
2021/07/11 08:43:53;;;;;;;10.57;9.48;;;;;;;30.13;39.37;99998.09;5031363;28;20044;-8
2021/07/11 08:46:20;;;;;;;10.43;9.35;;;;;;;30.02;39.61;99980.16;5032548;28;20060;-8
2021/07/11 08:48:49;;;;;;;11.25;9.18;;;;;;;29.72;39.36;99967.47;5032929;28;20588;-8
2021/07/11 08:51:16;;;;;;;11.38;8.88;;;;;;;29.51;40.02;99977.22;5032725;28;20037;-8
2021/07/11 08:53:45;;;;;;;11.43;8.70;;;;;;;29.79;40.10;99968.63;5033629;28;20041;-8
2021/07/11 08:56:16;;;;;;;10.27;9.27;;;;;;;29.82;39.78;99995.34;5032966;28;20120;-8
2021/07/11 08:58:50;;;;;;;10.15;9.07;;;;;;;29.96;41.06;99997.72;5035889;28;20406;-8
2021/07/11 09:01:25;;;;;;;9.55;8.65;;;;;;;30.17;40.32;99995.00;5038979;28;20045;-9
2021/07/11 09:04:09;;;;;;;10.32;8.75;;;;;;;30.42;39.63;99983.94;5032044;28;20047;-9
2021/07/11 09:06:45;;;;;;;9.48;8.57;;;;;;;30.47;38.80;99997.91;5032327;28;20053;-8
2021/07/11 09:09:21;;;;;;;10.52;9.48;;;;;;;30.25;39.29;99963.84;5032325;28;20041;-9
2021/07/11 09:12:03;;;;;;;8.88;7.97;;;;;;;30.48;38.66;99976.19;5032238;28;20052;-9
2021/07/11 09:14:33;;;;;;;10.07;9.18;;;;;;;30.50;38.53;99973.34;5032290;28;20047;-8
2021/07/11 09:17:01;;;;;;;11.60;8.82;;;;;;;30.54;40.09;99996.34;5032213;28;20041;-8
2021/07/11 09:19:32;;;;;;;9.55;8.18;;;;;;;30.65;39.37;99971.97;5032135;28;20033;-8
2021/07/11 09:22:28;;;;;;;10.18;8.63;;;;;;;31.02;38.03;100002.91;5031740;28;20095;-8
2021/07/11 09:24:56;;;;;;;12.50;9.27;;;;;;;30.77;38.08;99975.44;5031012;28;20056;-6
2021/07/11 09:27:28;;;;;;;13.45;9.48;;;;;;;30.90;38.65;99994.06;5030822;28;20037;-8
2021/07/11 09:30:05;;;;;;;10.75;8.93;;;;;;;30.79;39.42;99994.16;5032229;28;20056;-7
2021/07/11 09:32:34;;;;;;;9.77;8.52;;;;;;;30.71;38.44;99984.06;5032438;28;20083;-6
2021/07/11 09:35:13;;;;;;;8.70;7.57;;;;;;;30.59;40.38;99977.91;5032069;28;20124;-7
2021/07/11 09:37:42;;;;;;;11.32;9.13;;;;;;;30.92;38.97;99996.63;5031936;28;20519;-7
2021/07/11 09:40:10;;;;;;;10.45;8.80;;;;;;;31.10;38.67;99980.66;5030962;28;20175;-7
2021/07/11 09:42:40;;;;;;;9.70;8.80;;;;;;;31.28;37.13;99964.59;5031323;28;20037;-8
2021/07/11 09:45:18;;;;;;;8.60;7.60;;;;;;;31.21;38.99;99998.56;5032057;28;20128;-6
2021/07/11 09:47:45;;;;;;;10.18;9.18;;;;;;;31.34;37.64;99999.13;5038459;28;20072;-7
2021/07/11 09:50:13;;;;;;;10.68;8.63;;;;;;;31.23;37.74;99997.41;5051629;28;20037;-7
2021/07/11 09:52:42;;;;;;;8.38;7.50;;;;;;;31.05;38.37;99983.75;5051801;28;20528;-8
2021/07/11 09:55:19;;;;;;;12.15;8.77;;;;;;;31.08;37.20;99983.47;5051601;28;20549;-7
2021/07/11 09:57:48;;;;;;;9.63;8.73;;;;;;;31.43;36.47;99968.59;5050474;28;20055;-8
2021/07/11 10:00:19;;;;;;;8.97;8.17;;;;;;;31.66;36.24;99984.53;5050516;28;20044;-7
2021/07/11 10:02:47;;;;;;;9.48;8.60;;;;;;;31.36;36.75;100002.56;5052045;28;20041;-7
2021/07/11 10:05:14;;;;;;;9.75;8.40;;;;;;;31.18;36.24;100000.56;5050524;28;20460;-9
2021/07/11 10:07:40;;;;;;;9.45;8.55;;;;;;;31.00;37.41;99969.78;5052532;28;20048;-8
2021/07/11 10:10:10;;;;;;;9.80;8.80;;;;;;;30.93;37.64;99971.34;5051942;28;20044;-8
2021/07/11 10:12:38;;;;;;;9.50;8.57;;;;;;;31.56;36.87;99987.19;5052306;28;20132;-8
2021/07/11 10:15:11;;;;;;;9.95;8.50;;;;;;;31.46;36.54;99976.41;5055490;28;20295;-8
2021/07/11 10:18:00;;;;;;;9.52;8.38;;;;;;;31.34;37.07;99964.88;5054489;28;20049;-8
2021/07/11 10:20:41;;;;;;;9.57;7.65;;;;;;;31.56;37.00;99987.19;5055839;28;20045;-8
2021/07/11 10:23:09;;;;;;;9.10;8.27;;;;;;;31.78;36.12;99986.06;5054261;28;20119;-8
2021/07/11 10:25:38;;;;;;;9.20;7.93;;;;;;;31.78;37.37;99983.34;5037666;28;20051;-8
2021/07/11 10:28:14;;;;;;;8.40;7.60;;;;;;;31.62;35.86;99965.03;5055377;28;20056;-8
2021/07/11 10:30:46;;;;;;;8.35;7.55;;;;;;;31.42;35.60;99930.88;5054196;28;20132;-8
2021/07/11 10:33:19;;;;;;;8.68;7.60;;;;;;;31.73;36.59;99952.38;5055998;28;20481;-8
2021/07/11 10:36:05;;;;;;;8.88;7.97;;;;;;;31.93;36.01;99982.91;5055215;28;20082;-8
2021/07/11 10:38:53;;;;;;;9.77;8.73;;;;;;;32.30;35.27;99979.44;5055264;28;20514;-8
2021/07/11 10:41:27;;;;;;;9.82;7.35;;;;;;;32.22;35.25;99982.88;5055504;28;20509;-8
2021/07/11 10:43:59;;;;;;;9.68;8.77;;;;;;;32.08;35.57;99962.53;5055808;28;20052;-7
2021/07/11 10:46:37;;;;;;;9.55;8.60;;;;;;;31.79;37.05;99952.63;5055480;28;20489;-8
2021/07/11 10:49:17;;;;;;;8.20;7.10;;;;;;;32.15;35.75;99965.47;5054973;28;20587;-8
2021/07/11 10:51:52;;;;;;;10.43;9.05;;;;;;;32.02;36.38;99970.38;5053689;28;20047;-8
2021/07/11 10:54:27;;;;;;;8.98;7.82;;;;;;;31.87;37.54;99976.25;5055081;28;20454;-8
2021/07/11 10:56:56;;;;;;;9.60;8.70;;;;;;;31.52;36.62;99931.75;5054940;28;20045;-8
2021/07/11 10:59:40;;;;;;;9.98;8.57;;;;;;;31.74;36.16;99976.53;5053683;28;20045;-8
2021/07/11 11:02:29;;;;;;;9.98;8.95;;;;;;;31.65;36.74;99970.19;5053491;28;20044;-8
2021/07/11 11:04:59;;;;;;;9.80;8.30;;;;;;;31.91;37.13;99966.84;5053303;28;20045;-8
2021/07/11 11:07:26;;;;;;;11.00;7.20;;;;;;;32.03;37.46;99962.09;5055101;28;20566;-8
2021/07/11 11:09:52;;;;;;;9.25;6.70;;;;;;;31.82;37.20;99917.22;5054351;28;20106;-8
2021/07/11 11:12:28;;;;;;;8.70;6.32;;;;;;;31.97;36.00;99955.44;5054544;28;20041;-8
2021/07/11 11:15:03;;;;;;;8.70;7.80;;;;;;;32.10;36.45;99955.13;5053363;28;20049;-8
2021/07/11 11:17:36;;;;;;;9.75;8.45;;;;;;;32.09;35.19;99923.69;5053224;28;20100;-8
2021/07/11 11:20:15;;;;;;;8.40;7.30;;;;;;;32.42;35.16;99961.16;5038793;28;20045;-8
2021/07/11 11:22:53;;;;;;;8.60;7.80;;;;;;;32.47;34.68;99961.56;5041276;28;20045;-6
2021/07/11 11:25:21;;;;;;;9.55;8.57;;;;;;;32.25;35.02;99941.16;5053146;28;20501;-6
2021/07/11 11:27:53;;;;;;;9.27;8.38;;;;;;;31.83;35.52;99926.19;5054132;28;20497;-8
2021/07/11 11:30:25;;;;;;;9.70;8.07;;;;;;;31.81;35.92;99930.88;5051078;28;20056;-7
2021/07/11 11:32:54;;;;;;;12.35;7.47;;;;;;;31.94;37.01;99915.19;5053535;28;20080;-7
2021/07/11 11:35:26;;;;;;;11.23;7.72;;;;;;;31.90;36.48;99961.59;5054229;28;20405;-7
2021/07/11 11:37:58;;;;;;;9.43;8.57;;;;;;;31.82;35.57;99954.19;5044977;28;20552;-7
2021/07/11 11:40:26;;;;;;;10.40;7.85;;;;;;;32.26;35.83;99948.28;5053988;28;20513;-7
2021/07/11 11:42:55;;;;;;;12.40;7.75;;;;;;;32.20;35.78;99936.19;5054061;28;20044;-8
2021/07/11 11:45:24;;;;;;;9.43;7.38;;;;;;;32.39;34.98;99929.00;5054358;28;20513;-7
2021/07/11 11:48:11;;;;;;;9.20;8.32;;;;;;;32.58;34.53;99945.13;5052685;28;20106;-8
2021/07/11 11:50:39;;;;;;;10.35;7.40;;;;;;;32.62;34.67;99943.84;5054326;28;20090;-9
2021/07/11 11:53:13;;;;;;;8.52;7.72;;;;;;;32.76;35.74;99945.22;5054291;28;20045;-8
2021/07/11 11:55:56;;;;;;;10.73;6.75;;;;;;;32.38;37.13;99921.88;5053961;28;20068;-9
2021/07/11 11:58:29;;;;;;;11.02;7.75;;;;;;;32.63;34.76;99947.38;5051525;28;20048;-8